Nind, Missouri
Current Conditions -  °F | °C
As of 7:14 PM on Saturday 20 Dec 2014 (Local Time) from KIRK Reporting Station
Haze Haze  
Wind Chill: 31°   Ceiling: 2300
Heat Index: 37°   Visibility: 6mi
Dew Point: 36°   Wind: 8mph
Humidity: 96%   Direction: 170°S
Pressure: 30.18"   Gusts: NA
Location:  40.149°N, 92.6667°W
Report Text: KIRK 210114Z AUTO 17007KT 6SM BR SCT006 OVC023 03/02 A3018 RMK AO2 T00280022
Loading
Personal Weather Stations






























Interactive Weather Map New forecast layout! Learn more

10-Day Weather Forecast

Advertisements
Track Severe Weather on mobile